Search for airport 
image banner adimage banner adimage banner ad
image banner ad

3Y4 - Woodbine Muni

Located in Woodbine, United States

ICAO - 3Y4, IATA -

Data provided by Airmate  

General information

Coordinates: N41°44'10" W95°41'1"
Elevation is 1068 feet MSL.
Magnetic variation is 05° East
View others Airports in Iowa

Operational data

Special qualification required
Current time UTC:
Current local time:
Weather at : KHNR - Harlan Muni ( 33 km )
METAR: KHNR 151015Z AUTO 00000KT 10SM CLR 15/13 A3013 RMK A01
View NOTAMs / SUP AIP / TFR affecting this airport [VIEW]
Communications frequencies: [VIEW]

Runways:

RWY identifierQFULength (ft)Width (ft)SurfaceLDA (ft)
17204595GRASS
35204595GRASS

Airport contact information

Address: Woodbine United States

Satellite view of 3Y4